Time;durP1;ratioP1;P1;durP2;ratioP2;P2;SDS_P1;SDS_P2;PMS_P1;PMS_P2;Temp;Humidity;BMP_temperature;BMP_pressure;BME280_temperature;BME280_humidity;BME280_pressure;Samples;Min_cycle;Max_cycle;Signal;HPM_P1;HPM_P2
2021/10/28 00:12:40;;;;;;;;;;;;;;;;;;2085258;28;1910;-83
2021/10/28 00:13:43;;;;;;;;;;;;;;;;;;2106597;28;1054;-82
2021/10/28 00:14:48;;;;;;;;;;;;;;;;;;2108561;28;1460;-82
2021/10/28 00:15:55;;;;;;;;;;;;;;;;;;2100099;28;1442;-82
2021/10/28 00:16:59;;;;;;;;;;;;;;;;;;2100993;28;1309;-83
2021/10/28 00:18:12;;;;;;;;;;;;;;;;;;2100216;28;1325;-83
2021/10/28 00:19:16;;;;;;;;;;;;;;;;;;2101601;28;1218;-83
2021/10/28 00:20:16;;;;;;;;;;;;;;;;;;2108243;28;1343;-82
2021/10/28 00:21:18;;;;;;;;;;;;;;;;;;2105908;28;2107;-83
2021/10/28 00:22:22;;;;;;;;;;;;;;;;;;2108182;28;1353;-83
2021/10/28 00:23:24;;;;;;;;;;;;;;;;;;2107695;28;2211;-83
2021/10/28 00:24:25;;;;;;;;;;;;;;;;;;2099696;28;1186;-83
2021/10/28 00:25:27;;;;;;;;;;;;;;;;;;2090555;28;1301;-83
2021/10/28 00:26:28;;;;;;;;;;;;;;;;;;2115045;28;1292;-82
2021/10/28 00:27:30;;;;;;;;;;;;;;;;;;2108115;28;1339;-82
2021/10/28 00:28:31;;;;;;;;;;;;;;;;;;2108376;28;1217;-83
2021/10/28 00:29:33;;;;;;;;;;;;;;;;;;2107680;28;1304;-83
2021/10/28 00:30:34;;;;;;;;;;;;;;;;;;2116451;28;1202;-83
2021/10/28 00:31:37;;;;;;;;;;;;;;;;;;2107909;28;1239;-83
2021/10/28 00:32:38;;;;;;;;;;;;;;;;;;2106467;28;2021;-83
2021/10/28 00:33:39;;;;;;;;;;;;;;;;;;2108024;28;1237;-82
2021/10/28 00:34:42;;;;;;;;;;;;;;;;;;2108200;28;1415;-83
2021/10/28 00:35:43;;;;;;;;;;;;;;;;;;2099634;28;1328;-83
2021/10/28 00:36:45;;;;;;;;;;;;;;;;;;2108157;28;1364;-83
2021/10/28 00:37:47;;;;;;;;;;;;;;;;;;2108197;28;1242;-83
2021/10/28 00:38:48;;;;;;;;;;;;;;;;;;2107435;28;1469;-84
2021/10/28 00:39:50;;;;;;;;;;;;;;;;;;2108213;28;1238;-83
2021/10/28 00:40:52;;;;;;;;;;;;;;;;;;2099700;28;1280;-83
2021/10/28 00:41:54;;;;;;;;;;;;;;;;;;2099541;28;1233;-83
2021/10/28 00:42:56;;;;;;;;;;;;;;;;;;2108388;28;895;-82
2021/10/28 00:43:59;;;;;;;;;;;;;;;;;;2107892;28;1220;-83
2021/10/28 00:44:59;;;;;;;;;;;;;;;;;;2099901;28;1389;-83
2021/10/28 00:46:02;;;;;;;;;;;;;;;;;;2107608;28;1303;-82
2021/10/28 00:47:06;;;;;;;;;;;;;;;;;;2099604;28;1511;-83
2021/10/28 00:48:08;;;;;;;;;;;;;;;;;;2100091;28;1337;-82
2021/10/28 00:49:09;;;;;;;;;;;;;;;;;;2107915;28;1412;-82
2021/10/28 00:50:13;;;;;;;;;;;;;;;;;;2107887;28;1268;-81
2021/10/28 00:51:14;;;;;;;;;;;;;;;;;;2108505;28;1996;-81
2021/10/28 00:52:15;;;;;;;;;;;;;;;;;;2107836;28;1971;-82
2021/10/28 00:53:16;;;;;;;;;;;;;;;;;;2107325;28;1254;-81
2021/10/28 00:54:21;;;;;;;;;;;;;;;;;;2099298;28;1770;-82
2021/10/28 00:55:22;;;;;;;;;;;;;;;;;;2099788;28;1233;-81
2021/10/28 00:56:25;;;;;;;;;;;;;;;;;;2106570;28;2044;-82
2021/10/28 00:57:27;;;;;;;;;;;;;;;;;;2108178;28;1404;-82
2021/10/28 00:58:32;;;;;;;;;;;;;;;;;;2108441;28;1261;-82
2021/10/28 00:59:32;;;;;;;;;;;;;;;;;;2116285;28;1212;-82
2021/10/28 01:00:34;;;;;;;;;;;;;;;;;;2108107;28;1693;-82
2021/10/28 01:01:35;;;;;;;;;;;;;;;;;;2099342;28;1216;-82
2021/10/28 01:02:37;;;;;;;;;;;;;;;;;;2099680;28;1293;-83
2021/10/28 01:03:38;;;;;;;;;;;;;;;;;;2099650;28;1290;-83
2021/10/28 01:04:41;;;;;;;;;;;;;;;;;;2099739;28;1365;-83
2021/10/28 01:05:44;;;;;;;;;;;;;;;;;;2092629;28;1228;-83
2021/10/28 01:06:46;;;;;;;;;;;;;;;;;;2107529;28;1188;-83
2021/10/28 01:07:46;;;;;;;;;;;;;;;;;;2107828;28;1214;-82
2021/10/28 01:08:48;;;;;;;;;;;;;;;;;;2099092;28;1206;-83
2021/10/28 01:09:49;;;;;;;;;;;;;;;;;;2091001;28;1376;-83
2021/10/28 01:10:51;;;;;;;;;;;;;;;;;;2099416;28;1355;-82
2021/10/28 01:11:53;;;;;;;;;;;;;;;;;;2099467;28;1247;-82
2021/10/28 01:12:55;;;;;;;;;;;;;;;;;;2099925;28;1965;-82
2021/10/28 01:13:56;;;;;;;;;;;;;;;;;;2107864;28;1376;-82
2021/10/28 01:14:58;;;;;;;;;;;;;;;;;;2107738;28;1339;-84
2021/10/28 01:15:59;;;;;;;;;;;;;;;;;;2091356;28;1370;-83
2021/10/28 01:17:01;;;;;;;;;;;;;;;;;;2099472;28;1374;-83
2021/10/28 01:18:07;;;;;;;;;;;;;;;;;;2107918;28;1563;-83
2021/10/28 01:19:09;;;;;;;;;;;;;;;;;;2107780;28;1437;-83
2021/10/28 01:20:12;;;;;;;;;;;;;;;;;;2099747;28;1326;-83
2021/10/28 01:21:14;;;;;;;;;;;;;;;;;;2098983;28;1284;-83
2021/10/28 01:22:15;;;;;;;;;;;;;;;;;;2099310;28;1379;-82
2021/10/28 01:23:20;;;;;;;;;;;;;;;;;;2099292;28;1342;-83
2021/10/28 01:24:20;;;;;;;;;;;;;;;;;;2099358;28;1229;-83
2021/10/28 01:25:22;;;;;;;;;;;;;;;;;;2099015;28;1227;-83
2021/10/28 01:26:23;;;;;;;;;;;;;;;;;;2106623;28;1348;-83
2021/10/28 01:27:27;;;;;;;;;;;;;;;;;;2107675;28;1304;-83
2021/10/28 01:28:29;;;;;;;;;;;;;;;;;;2099647;28;1520;-82
2021/10/28 01:29:31;;;;;;;;;;;;;;;;;;2091130;28;1298;-83
2021/10/28 01:30:32;;;;;;;;;;;;;;;;;;2091341;28;1434;-84
2021/10/28 01:31:34;;;;;;;;;;;;;;;;;;2107552;28;1261;-83
2021/10/28 01:32:35;;;;;;;;;;;;;;;;;;2107980;28;1906;-83
2021/10/28 01:33:39;;;;;;;;;;;;;;;;;;2108353;28;823;-83
2021/10/28 01:34:43;;;;;;;;;;;;;;;;;;2107983;28;1399;-83
2021/10/28 01:35:47;;;;;;;;;;;;;;;;;;2107309;28;1892;-83
2021/10/28 01:36:48;;;;;;;;;;;;;;;;;;2107453;28;1296;-83
2021/10/28 01:37:50;;;;;;;;;;;;;;;;;;2090963;28;1266;-83
2021/10/28 01:38:51;;;;;;;;;;;;;;;;;;2090941;28;1514;-83
2021/10/28 01:39:53;;;;;;;;;;;;;;;;;;2099069;28;1195;-83
2021/10/28 01:40:55;;;;;;;;;;;;;;;;;;2107725;28;1448;-83
2021/10/28 01:41:57;;;;;;;;;;;;;;;;;;2107691;28;1318;-83
2021/10/28 01:42:58;;;;;;;;;;;;;;;;;;2103678;28;2084;-83
2021/10/28 01:44:00;;;;;;;;;;;;;;;;;;2107168;28;1286;-82
2021/10/28 01:45:00;;;;;;;;;;;;;;;;;;2107439;28;1209;-83
2021/10/28 01:46:05;;;;;;;;;;;;;;;;;;2107385;28;1225;-83
2021/10/28 01:47:08;;;;;;;;;;;;;;;;;;2116180;28;1036;-83
2021/10/28 01:48:09;;;;;;;;;;;;;;;;;;2115691;28;1218;-83
2021/10/28 01:49:20;;;;;;;;;;;;;;;;;;2107677;28;1329;-82
2021/10/28 01:50:21;;;;;;;;;;;;;;;;;;2116194;28;941;-83
2021/10/28 01:51:24;;;;;;;;;;;;;;;;;;2108687;28;1402;-83
2021/10/28 01:52:25;;;;;;;;;;;;;;;;;;2091185;28;1100;-83
2021/10/28 01:53:27;;;;;;;;;;;;;;;;;;2090752;28;1977;-83
2021/10/28 01:54:29;;;;;;;;;;;;;;;;;;2107416;28;1483;-83
2021/10/28 01:55:30;;;;;;;;;;;;;;;;;;2099461;28;1311;-82
2021/10/28 01:56:32;;;;;;;;;;;;;;;;;;2115829;28;2214;-82
2021/10/28 01:57:34;;;;;;;;;;;;;;;;;;2107686;28;1443;-83
2021/10/28 01:58:35;;;;;;;;;;;;;;;;;;2107709;28;1278;-82
2021/10/28 01:59:37;;;;;;;;;;;;;;;;;;2107408;28;1241;-82
2021/10/28 02:00:39;;;;;;;;;;;;;;;;;;2098754;28;1302;-82
2021/10/28 02:01:41;;;;;;;;;;;;;;;;;;2107487;28;1293;-82
2021/10/28 02:02:42;;;;;;;;;;;;;;;;;;2106232;28;1343;-81
2021/10/28 02:03:44;;;;;;;;;;;;;;;;;;2082827;28;1214;-82
2021/10/28 02:04:45;;;;;;;;;;;;;;;;;;2098924;28;1388;-82
2021/10/28 02:05:49;;;;;;;;;;;;;;;;;;2100042;28;1200;-82
2021/10/28 02:06:51;;;;;;;;;;;;;;;;;;2108050;28;1393;-82
2021/10/28 02:07:53;;;;;;;;;;;;;;;;;;2107315;28;1359;-82
2021/10/28 02:08:54;;;;;;;;;;;;;;;;;;2098854;28;1262;-82
2021/10/28 02:09:56;;;;;;;;;;;;;;;;;;2098786;28;1336;-82
2021/10/28 02:10:57;;;;;;;;;;;;;;;;;;2107098;28;1912;-83
2021/10/28 02:12:01;;;;;;;;;;;;;;;;;;2107718;28;1364;-82
2021/10/28 02:13:03;;;;;;;;;;;;;;;;;;2098553;28;1981;-83
2021/10/28 02:14:05;;;;;;;;;;;;;;;;;;2099089;28;1262;-83
2021/10/28 02:15:06;;;;;;;;;;;;;;;;;;2107501;28;1516;-83
2021/10/28 02:16:09;;;;;;;;;;;;;;;;;;2099405;28;1396;-83
2021/10/28 02:17:10;;;;;;;;;;;;;;;;;;2107873;28;1206;-83
2021/10/28 02:18:12;;;;;;;;;;;;;;;;;;2107569;28;1333;-83
2021/10/28 02:19:13;;;;;;;;;;;;;;;;;;2107742;28;1423;-83
2021/10/28 02:20:16;;;;;;;;;;;;;;;;;;2107672;28;1213;-82
2021/10/28 02:21:17;;;;;;;;;;;;;;;;;;2108614;28;1387;-83
2021/10/28 02:22:21;;;;;;;;;;;;;;;;;;2109215;28;1341;-83
2021/10/28 02:23:22;;;;;;;;;;;;;;;;;;2108917;28;1253;-83
2021/10/28 02:24:24;;;;;;;;;;;;;;;;;;2109197;28;1209;-84
2021/10/28 02:25:26;;;;;;;;;;;;;;;;;;2117461;28;1352;-82
2021/10/28 02:26:27;;;;;;;;;;;;;;;;;;2109601;28;1960;-83
2021/10/28 02:27:29;;;;;;;;;;;;;;;;;;2109189;28;2104;-83
2021/10/28 02:28:30;;;;;;;;;;;;;;;;;;2117840;28;1094;-83
2021/10/28 02:29:32;;;;;;;;;;;;;;;;;;2100571;28;1349;-83
2021/10/28 02:30:33;;;;;;;;;;;;;;;;;;2100898;28;1302;-83
2021/10/28 02:31:35;;;;;;;;;;;;;;;;;;2108619;28;1413;-83
2021/10/28 02:32:36;;;;;;;;;;;;;;;;;;2107339;28;1348;-83
2021/10/28 02:33:38;;;;;;;;;;;;;;;;;;2100248;28;1910;-82
2021/10/28 02:34:40;;;;;;;;;;;;;;;;;;2092517;28;1304;-82
2021/10/28 02:35:42;;;;;;;;;;;;;;;;;;2100577;28;1645;-82
2021/10/28 02:36:42;;;;;;;;;;;;;;;;;;2100665;28;1174;-82
2021/10/28 02:37:46;;;;;;;;;;;;;;;;;;2100471;28;1353;-82
2021/10/28 02:38:47;;;;;;;;;;;;;;;;;;2109010;28;1364;-82
2021/10/28 02:39:49;;;;;;;;;;;;;;;;;;2108685;28;1436;-83
2021/10/28 02:40:52;;;;;;;;;;;;;;;;;;2109247;28;813;-83
2021/10/28 02:41:53;;;;;;;;;;;;;;;;;;2108973;28;1275;-83
2021/10/28 02:42:54;;;;;;;;;;;;;;;;;;2100759;28;1380;-82
2021/10/28 02:43:57;;;;;;;;;;;;;;;;;;2109026;28;963;-83
2021/10/28 02:44:57;;;;;;;;;;;;;;;;;;2108816;28;1241;-85
2021/10/28 02:45:59;;;;;;;;;;;;;;;;;;2111689;28;2015;-82
2021/10/28 02:47:00;;;;;;;;;;;;;;;;;;2108472;28;1274;-83
2021/10/28 02:48:01;;;;;;;;;;;;;;;;;;2105171;28;2034;-83
2021/10/28 02:49:02;;;;;;;;;;;;;;;;;;2109019;28;1232;-83
2021/10/28 02:50:07;;;;;;;;;;;;;;;;;;2093264;28;1475;-83
2021/10/28 02:51:08;;;;;;;;;;;;;;;;;;2105245;28;1217;-82
2021/10/28 02:52:10;;;;;;;;;;;;;;;;;;2100471;28;1409;-82
2021/10/28 02:53:12;;;;;;;;;;;;;;;;;;2108604;28;1965;-83
2021/10/28 02:54:15;;;;;;;;;;;;;;;;;;2100731;28;1336;-82
2021/10/28 02:55:17;;;;;;;;;;;;;;;;;;2100163;28;1213;-83
2021/10/28 02:56:19;;;;;;;;;;;;;;;;;;2106834;28;1348;-82
2021/10/28 02:57:19;;;;;;;;;;;;;;;;;;2108550;28;1291;-82
2021/10/28 02:58:23;;;;;;;;;;;;;;;;;;2109148;28;1269;-82
2021/10/28 02:59:23;;;;;;;;;;;;;;;;;;2108709;28;1618;-82
2021/10/28 03:00:25;;;;;;;;;;;;;;;;;;2108982;28;1292;-83
2021/10/28 03:01:26;;;;;;;;;;;;;;;;;;2101103;28;1321;-83
2021/10/28 03:02:28;;;;;;;;;;;;;;;;;;2100634;28;1281;-83
2021/10/28 03:03:29;;;;;;;;;;;;;;;;;;2100598;28;1352;-82
2021/10/28 03:04:31;;;;;;;;;;;;;;;;;;2101072;28;1218;-82
2021/10/28 03:05:32;;;;;;;;;;;;;;;;;;2108642;28;1368;-83
2021/10/28 03:06:37;;;;;;;;;;;;;;;;;;2100023;28;1286;-82
2021/10/28 03:07:40;;;;;;;;;;;;;;;;;;2093301;28;1890;-82
2021/10/28 03:08:42;;;;;;;;;;;;;;;;;;2109037;28;907;-82
2021/10/28 03:09:44;;;;;;;;;;;;;;;;;;2108286;28;1304;-82
2021/10/28 03:10:45;;;;;;;;;;;;;;;;;;2100113;28;1419;-82
2021/10/28 03:11:48;;;;;;;;;;;;;;;;;;2099989;28;1213;-82
2021/10/28 03:12:52;;;;;;;;;;;;;;;;;;2100687;28;1429;-82
2021/10/28 03:13:53;;;;;;;;;;;;;;;;;;2100656;28;1910;-82
2021/10/28 03:14:56;;;;;;;;;;;;;;;;;;2108960;28;1281;-82
2021/10/28 03:15:59;;;;;;;;;;;;;;;;;;2108534;28;1680;-82
2021/10/28 03:17:04;;;;;;;;;;;;;;;;;;2108863;28;1162;-83
2021/10/28 03:19:45;;;;;;;;;;;;;;;;;;2082604;28;1365;-82
2021/10/28 03:26:19;;;;;;;;;;;;;;;;;;2102921;28;1360;-82
2021/10/28 03:27:20;;;;;;;;;;;;;;;;;;2099759;28;1313;-82
2021/10/28 03:28:22;;;;;;;;;;;;;;;;;;2100338;28;1247;-81
2021/10/28 03:29:22;;;;;;;;;;;;;;;;;;2108468;28;1380;-82
2021/10/28 03:30:25;;;;;;;;;;;;;;;;;;2100077;28;1425;-82
2021/10/28 03:31:25;;;;;;;;;;;;;;;;;;2099785;28;1280;-82
2021/10/28 03:32:28;;;;;;;;;;;;;;;;;;2099622;28;1360;-82
2021/10/28 03:33:29;;;;;;;;;;;;;;;;;;2107898;28;1914;-82
2021/10/28 03:34:31;;;;;;;;;;;;;;;;;;2108383;28;1231;-82
2021/10/28 03:35:33;;;;;;;;;;;;;;;;;;2108054;28;1244;-83
2021/10/28 03:36:43;;;;;;;;;;;;;;;;;;2092096;28;1332;-82
2021/10/28 03:37:48;;;;;;;;;;;;;;;;;;2094555;28;1234;-82
2021/10/28 03:38:56;;;;;;;;;;;;;;;;;;2100677;28;1435;-82
2021/10/28 03:40:20;;;;;;;;;;;;;;;;;;2100873;28;1305;-82
2021/10/28 03:41:51;;;;;;;;;;;;;;;;;;2103419;28;1348;-82
2021/10/28 03:58:26;;;;;;;;;;;;;;;;;;2116972;28;1462;-82
2021/10/28 04:01:21;;;;;;;;;;;;;;;;;;2114989;27;1635;-81
2021/10/28 04:18:49;;;;;;;;;;;;;;;;;;2103363;28;1430;-82
2021/10/28 04:21:24;;;;;;;;;;;;;;;;;;2100295;28;1372;-82
2021/10/28 04:29:11;;;;;;;;;;;;;;;;;;2107917;28;1734;-78
2021/10/28 04:30:12;;;;;;;;;;;;;;;;;;2099754;28;1537;-78
2021/10/28 04:31:15;;;;;;;;;;;;;;;;;;2102134;28;1697;-79
2021/10/28 04:32:15;;;;;;;;;;;;;;;;;;2099550;28;1536;-78
2021/10/28 04:33:17;;;;;;;;;;;;;;;;;;2106892;28;1836;-78
2021/10/28 04:34:20;;;;;;;;;;;;;;;;;;2108030;28;1608;-78
2021/10/28 04:39:14;;;;;;;;;;;;;;;;;;2108588;28;1218;-78
2021/10/28 04:40:15;;;;;;;;;;;;;;;;;;2113812;28;1888;-79
2021/10/28 04:41:17;;;;;;;;;;;;;;;;;;2107589;28;1830;-79
2021/10/28 04:42:18;;;;;;;;;;;;;;;;;;2099678;28;1804;-78
2021/10/28 04:43:21;;;;;;;;;;;;;;;;;;2099166;28;1571;-78
2021/10/28 04:44:21;;;;;;;;;;;;;;;;;;2107718;28;910;-78
2021/10/28 04:45:23;;;;;;;;;;;;;;;;;;2107595;28;1340;-79
2021/10/28 04:46:24;;;;;;;;;;;;;;;;;;2115037;28;1261;-78
2021/10/28 04:47:26;;;;;;;;;;;;;;;;;;2107609;28;1626;-79
2021/10/28 04:48:26;;;;;;;;;;;;;;;;;;2099395;28;1602;-78
2021/10/28 04:49:28;;;;;;;;;;;;;;;;;;2107732;28;1538;-78
2021/10/28 04:50:29;;;;;;;;;;;;;;;;;;2099596;28;1537;-78
2021/10/28 04:51:31;;;;;;;;;;;;;;;;;;2115403;28;1945;-79
2021/10/28 04:52:31;;;;;;;;;;;;;;;;;;2114881;28;2061;-78
2021/10/28 04:53:33;;;;;;;;;;;;;;;;;;2115616;28;1971;-78
2021/10/28 04:54:34;;;;;;;;;;;;;;;;;;2099453;28;1313;-78
2021/10/28 04:55:36;;;;;;;;;;;;;;;;;;2090659;28;1832;-79
2021/10/28 04:56:37;;;;;;;;;;;;;;;;;;2099633;28;1575;-79
2021/10/28 04:57:39;;;;;;;;;;;;;;;;;;2107346;28;1927;-79
2021/10/28 04:58:42;;;;;;;;;;;;;;;;;;2107922;28;1210;-79
2021/10/28 04:59:44;;;;;;;;;;;;;;;;;;2090992;28;1906;-79
2021/10/28 05:00:44;;;;;;;;;;;;;;;;;;2092519;28;1652;-79
2021/10/28 05:01:46;;;;;;;;;;;;;;;;;;2107481;28;1614;-78
2021/10/28 05:02:47;;;;;;;;;;;;;;;;;;2099043;28;1643;-78
2021/10/28 05:03:48;;;;;;;;;;;;;;;;;;2099230;28;1594;-78
2021/10/28 05:04:49;;;;;;;;;;;;;;;;;;2108003;28;1533;-78
2021/10/28 05:05:51;;;;;;;;;;;;;;;;;;2106328;28;1889;-78
2021/10/28 05:06:52;;;;;;;;;;;;;;;;;;2099233;28;1551;-78
2021/10/28 05:07:53;;;;;;;;;;;;;;;;;;2110744;28;2125;-78
2021/10/28 05:08:55;;;;;;;;;;;;;;;;;;2116147;28;1554;-78
2021/10/28 05:09:56;;;;;;;;;;;;;;;;;;2107785;28;1546;-79
2021/10/28 05:10:57;;;;;;;;;;;;;;;;;;2106990;28;1861;-78
2021/10/28 05:11:58;;;;;;;;;;;;;;;;;;2107665;28;1690;-78
2021/10/28 05:13:00;;;;;;;;;;;;;;;;;;2099185;28;1610;-78
2021/10/28 05:14:02;;;;;;;;;;;;;;;;;;2099252;28;1901;-78
2021/10/28 05:15:04;;;;;;;;;;;;;;;;;;2099012;28;1667;-79
2021/10/28 05:16:06;;;;;;;;;;;;;;;;;;2095073;28;2021;-78
2021/10/28 05:17:07;;;;;;;;;;;;;;;;;;2099260;28;1650;-78
2021/10/28 05:18:09;;;;;;;;;;;;;;;;;;2099758;28;1934;-78
2021/10/28 05:19:10;;;;;;;;;;;;;;;;;;2099431;28;1626;-79
2021/10/28 05:20:12;;;;;;;;;;;;;;;;;;2107639;28;1526;-78
2021/10/28 05:21:13;;;;;;;;;;;;;;;;;;2107203;28;1536;-78
2021/10/28 05:22:15;;;;;;;;;;;;;;;;;;2107704;28;1657;-78
2021/10/28 05:23:16;;;;;;;;;;;;;;;;;;2114062;28;1934;-78
2021/10/28 05:24:17;;;;;;;;;;;;;;;;;;2107802;28;1776;-78
2021/10/28 05:25:20;;;;;;;;;;;;;;;;;;2107498;28;1534;-79
2021/10/28 05:26:21;;;;;;;;;;;;;;;;;;2099446;28;1206;-78
2021/10/28 05:27:23;;;;;;;;;;;;;;;;;;2099024;28;1245;-78
2021/10/28 05:28:24;;;;;;;;;;;;;;;;;;2107178;28;1360;-78
2021/10/28 05:29:27;;;;;;;;;;;;;;;;;;2115903;28;1529;-78
2021/10/28 05:30:28;;;;;;;;;;;;;;;;;;2107726;28;1536;-78
2021/10/28 05:31:30;;;;;;;;;;;;;;;;;;2113997;28;2056;-78
2021/10/28 05:32:31;;;;;;;;;;;;;;;;;;2106952;28;1884;-78
2021/10/28 05:33:33;;;;;;;;;;;;;;;;;;2107246;28;1568;-78
2021/10/28 05:34:34;;;;;;;;;;;;;;;;;;2107658;28;2028;-78
2021/10/28 05:35:36;;;;;;;;;;;;;;;;;;2115252;28;2054;-78
2021/10/28 05:36:36;;;;;;;;;;;;;;;;;;2107248;28;1585;-78
2021/10/28 05:37:38;;;;;;;;;;;;;;;;;;2100505;28;1640;-78
2021/10/28 05:38:39;;;;;;;;;;;;;;;;;;2107421;28;1117;-79
2021/10/28 05:39:41;;;;;;;;;;;;;;;;;;2107659;28;1321;-79
2021/10/28 05:40:42;;;;;;;;;;;;;;;;;;2107391;28;1989;-79
2021/10/28 05:41:44;;;;;;;;;;;;;;;;;;2107096;28;1719;-78
2021/10/28 05:42:48;;;;;;;;;;;;;;;;;;2107456;28;1612;-79
2021/10/28 05:43:50;;;;;;;;;;;;;;;;;;2108075;28;1618;-79
2021/10/28 05:44:52;;;;;;;;;;;;;;;;;;2106964;28;1655;-78
2021/10/28 05:45:53;;;;;;;;;;;;;;;;;;2107502;28;913;-79
2021/10/28 05:46:54;;;;;;;;;;;;;;;;;;2107548;28;1511;-79
2021/10/28 05:47:56;;;;;;;;;;;;;;;;;;2111124;28;2064;-79
2021/10/28 05:48:57;;;;;;;;;;;;;;;;;;2107413;28;1897;-82
2021/10/28 05:50:00;;;;;;;;;;;;;;;;;;2115797;28;1610;-78
2021/10/28 05:51:01;;;;;;;;;;;;;;;;;;2111652;28;2011;-79
2021/10/28 05:52:03;;;;;;;;;;;;;;;;;;2099520;28;1617;-79
2021/10/28 05:53:04;;;;;;;;;;;;;;;;;;2107458;28;2028;-79
2021/10/28 05:54:05;;;;;;;;;;;;;;;;;;2098695;28;1909;-79
2021/10/28 05:55:07;;;;;;;;;;;;;;;;;;2100090;28;1352;-79
2021/10/28 05:56:09;;;;;;;;;;;;;;;;;;2113006;28;2121;-78
2021/10/28 05:57:10;;;;;;;;;;;;;;;;;;2109069;28;1613;-78
2021/10/28 05:58:12;;;;;;;;;;;;;;;;;;2109078;28;1432;-79
2021/10/28 05:59:13;;;;;;;;;;;;;;;;;;2100702;28;1239;-79
2021/10/28 06:00:16;;;;;;;;;;;;;;;;;;2102231;28;1301;-80
2021/10/28 06:01:18;;;;;;;;;;;;;;;;;;2110212;28;1843;-78
2021/10/28 06:02:18;;;;;;;;;;;;;;;;;;2109316;28;1306;-78
2021/10/28 06:03:20;;;;;;;;;;;;;;;;;;2108763;28;1565;-79
2021/10/28 06:04:21;;;;;;;;;;;;;;;;;;2100831;28;1442;-78
2021/10/28 06:05:23;;;;;;;;;;;;;;;;;;2100818;28;1313;-78
2021/10/28 06:06:24;;;;;;;;;;;;;;;;;;2101311;28;2007;-79
2021/10/28 06:07:26;;;;;;;;;;;;;;;;;;2100387;28;1358;-79
2021/10/28 06:08:26;;;;;;;;;;;;;;;;;;2100501;28;1552;-78
2021/10/28 06:09:28;;;;;;;;;;;;;;;;;;2100628;28;1732;-79
2021/10/28 06:10:29;;;;;;;;;;;;;;;;;;2100683;28;1306;-78
2021/10/28 06:11:31;;;;;;;;;;;;;;;;;;2108224;28;2084;-78
2021/10/28 06:12:34;;;;;;;;;;;;;;;;;;2108770;28;1644;-78
2021/10/28 06:13:43;;;;;;;;;;;;;;;;;;2103649;28;1822;-79
2021/10/28 06:14:43;;;;;;;;;;;;;;;;;;2109150;28;1910;-78
2021/10/28 06:15:48;;;;;;;;;;;;;;;;;;2108878;28;1692;-79
2021/10/28 06:16:52;;;;;;;;;;;;;;;;;;2108086;28;1562;-79
2021/10/28 06:17:56;;;;;;;;;;;;;;;;;;2108950;28;1893;-79
2021/10/28 06:18:58;;;;;;;;;;;;;;;;;;2117017;28;871;-82
2021/10/28 06:19:59;;;;;;;;;;;;;;;;;;2109151;28;1551;-78
2021/10/28 06:21:01;;;;;;;;;;;;;;;;;;2100520;28;2017;-78
2021/10/28 06:22:03;;;;;;;;;;;;;;;;;;2100604;28;1537;-79
2021/10/28 06:23:04;;;;;;;;;;;;;;;;;;2100712;28;1535;-79
2021/10/28 06:24:05;;;;;;;;;;;;;;;;;;2100647;28;1832;-79
2021/10/28 06:25:06;;;;;;;;;;;;;;;;;;2108652;28;1652;-79
2021/10/28 06:26:09;;;;;;;;;;;;;;;;;;2104377;28;2016;-79
2021/10/28 06:27:10;;;;;;;;;;;;;;;;;;2100580;28;1692;-79
2021/10/28 06:28:12;;;;;;;;;;;;;;;;;;2097066;28;2023;-79
2021/10/28 06:29:12;;;;;;;;;;;;;;;;;;2092225;28;1533;-78
2021/10/28 06:30:14;;;;;;;;;;;;;;;;;;2100005;28;1657;-79
2021/10/28 06:31:18;;;;;;;;;;;;;;;;;;2105227;28;1885;-79
2021/10/28 06:32:18;;;;;;;;;;;;;;;;;;2111333;28;1384;-78
2021/10/28 06:33:21;;;;;;;;;;;;;;;;;;2114026;28;1555;-78
2021/10/28 06:34:26;;;;;;;;;;;;;;;;;;2103377;28;1984;-78
2021/10/28 06:35:27;;;;;;;;;;;;;;;;;;2101675;28;1521;-79
2021/10/28 06:36:34;;;;;;;;;;;;;;;;;;2108484;28;1877;-79
2021/10/28 06:37:35;;;;;;;;;;;;;;;;;;2109597;28;1665;-79
2021/10/28 06:38:37;;;;;;;;;;;;;;;;;;2102787;28;1677;-79
2021/10/28 06:39:38;;;;;;;;;;;;;;;;;;2105721;28;1561;-79
2021/10/28 06:40:40;;;;;;;;;;;;;;;;;;2104081;28;1742;-79
2021/10/28 06:41:42;;;;;;;;;;;;;;;;;;2111230;28;1301;-80
2021/10/28 06:42:43;;;;;;;;;;;;;;;;;;2099460;28;1690;-79
2021/10/28 06:43:45;;;;;;;;;;;;;;;;;;2091926;28;1511;-79
2021/10/28 06:44:45;;;;;;;;;;;;;;;;;;2100380;28;1696;-79
2021/10/28 06:45:47;;;;;;;;;;;;;;;;;;2101535;28;1850;-79
2021/10/28 06:46:49;;;;;;;;;;;;;;;;;;2100710;28;1660;-79
2021/10/28 06:47:51;;;;;;;;;;;;;;;;;;2103184;28;2030;-79
2021/10/28 06:48:52;;;;;;;;;;;;;;;;;;2108934;28;1706;-79
2021/10/28 06:49:55;;;;;;;;;;;;;;;;;;2108584;28;1830;-80
2021/10/28 06:50:59;;;;;;;;;;;;;;;;;;2105789;28;1890;-79
2021/10/28 06:51:59;;;;;;;;;;;;;;;;;;2100713;28;1663;-79
2021/10/28 06:53:09;;;;;;;;;;;;;;;;;;2107970;28;1631;-78
2021/10/28 06:54:19;;;;;;;;;;;;;;;;;;2108974;28;1635;-79
2021/10/28 06:55:36;;;;;;;;;;;;;;;;;;2108906;28;989;-79
2021/10/28 07:02:30;;;;;;;;;;;;;;;;;;2088694;28;1155;-78
2021/10/28 07:03:32;;;;;;;;;;;;;;;;;;2088157;28;1648;-78
2021/10/28 07:04:34;;;;;;;;;;;;;;;;;;2091666;28;1539;-79
2021/10/28 07:05:36;;;;;;;;;;;;;;;;;;2106327;28;1751;-79
2021/10/28 07:06:39;;;;;;;;;;;;;;;;;;2114149;28;1490;-79
2021/10/28 07:07:40;;;;;;;;;;;;;;;;;;2107822;28;1577;-79
2021/10/28 07:08:44;;;;;;;;;;;;;;;;;;2107863;28;1677;-78
2021/10/28 07:09:49;;;;;;;;;;;;;;;;;;2105734;28;1574;-78
2021/10/28 07:10:54;;;;;;;;;;;;;;;;;;2108803;28;1710;-78
2021/10/28 07:12:06;;;;;;;;;;;;;;;;;;2115603;28;1553;-79
2021/10/28 07:13:12;;;;;;;;;;;;;;;;;;2106025;28;1618;-78
2021/10/28 07:14:13;;;;;;;;;;;;;;;;;;2116313;28;1316;-79
2021/10/28 07:15:19;;;;;;;;;;;;;;;;;;2116186;28;1977;-78
2021/10/28 07:16:27;;;;;;;;;;;;;;;;;;2107650;28;1679;-79
2021/10/28 07:17:35;;;;;;;;;;;;;;;;;;2106514;28;1297;-79
2021/10/28 07:18:45;;;;;;;;;;;;;;;;;;2108137;28;1591;-79
2021/10/28 07:20:01;;;;;;;;;;;;;;;;;;2103540;28;1667;-79
2021/10/28 07:22:45;;;;;;;;;;;;;;;;;;2090414;28;1677;-78
2021/10/28 07:30:43;;;;;;;;;;;;;;;;;;2098050;28;1695;-79
2021/10/28 07:34:58;;;;;;;;;;;;;;;;;;2109458;28;1921;-78
2021/10/28 07:56:29;;;;;;;;;;;;;;;;;;2109099;28;1651;-79
2021/10/28 07:57:45;;;;;;;;;;;;;;;;;;2109804;28;1606;-80
2021/10/28 08:00:29;;;;;;;;;;;;;;;;;;2092558;28;1544;-79
2021/10/28 08:05:58;;;;;;;;;;;;;;;;;;2110656;28;1216;-82
2021/10/28 08:13:54;;;;;;;;;;;;;;;;;;2109729;28;1634;-79
2021/10/28 08:17:59;;;;;;;;;;;;;;;;;;2107329;27;1642;-79
2021/10/28 08:19:03;;;;;;;;;;;;;;;;;;2111349;28;1853;-80
2021/10/28 08:20:10;;;;;;;;;;;;;;;;;;2101751;28;1552;-79
2021/10/28 08:21:26;;;;;;;;;;;;;;;;;;2102134;28;1480;-79
2021/10/28 08:22:33;;;;;;;;;;;;;;;;;;2111674;28;1769;-79
2021/10/28 08:23:39;;;;;;;;;;;;;;;;;;2114471;28;1335;-78
2021/10/28 08:28:42;;;;;;;;;;;;;;;;;;2111145;28;1697;-79
2021/10/28 08:29:45;;;;;;;;;;;;;;;;;;2110986;28;1683;-79
2021/10/28 08:30:47;;;;;;;;;;;;;;;;;;2105157;28;1704;-79
2021/10/28 08:31:48;;;;;;;;;;;;;;;;;;2100678;28;1659;-79
2021/10/28 08:32:52;;;;;;;;;;;;;;;;;;2103627;28;922;-78
2021/10/28 08:33:52;;;;;;;;;;;;;;;;;;2096973;28;1560;-78
2021/10/28 08:34:57;;;;;;;;;;;;;;;;;;2097391;28;1600;-78
2021/10/28 08:36:07;;;;;;;;;;;;;;;;;;2108682;28;1854;-78
2021/10/28 08:37:11;;;;;;;;;;;;;;;;;;2112936;28;1909;-79
2021/10/28 08:38:12;;;;;;;;;;;;;;;;;;2104630;28;2038;-78
2021/10/28 08:39:13;;;;;;;;;;;;;;;;;;2105809;28;1722;-78
2021/10/28 08:40:15;;;;;;;;;;;;;;;;;;2106293;28;1547;-79
2021/10/28 08:41:20;;;;;;;;;;;;;;;;;;2107430;28;1918;-80
2021/10/28 08:42:23;;;;;;;;;;;;;;;;;;2105307;28;954;-79
2021/10/28 08:43:26;;;;;;;;;;;;;;;;;;2104658;28;2082;-80
2021/10/28 08:44:29;;;;;;;;;;;;;;;;;;2097594;28;1563;-79
2021/10/28 08:45:34;;;;;;;;;;;;;;;;;;2089511;28;1508;-79
2021/10/28 08:46:36;;;;;;;;;;;;;;;;;;2098069;28;843;-79
2021/10/28 08:47:44;;;;;;;;;;;;;;;;;;2097441;28;1912;-79
2021/10/28 08:48:51;;;;;;;;;;;;;;;;;;2105201;28;870;-80
2021/10/28 08:49:56;;;;;;;;;;;;;;;;;;2098452;28;906;-79
2021/10/28 08:51:05;;;;;;;;;;;;;;;;;;2097582;28;1919;-79
2021/10/28 08:52:12;;;;;;;;;;;;;;;;;;2107192;28;1242;-79
2021/10/28 08:53:26;;;;;;;;;;;;;;;;;;2110980;28;1955;-79
2021/10/28 08:54:52;;;;;;;;;;;;;;;;;;2106458;28;1693;-79
2021/10/28 08:55:57;;;;;;;;;;;;;;;;;;2097572;28;1898;-79
2021/10/28 08:57:17;;;;;;;;;;;;;;;;;;2097421;28;1910;-79
2021/10/28 08:58:57;;;;;;;;;;;;;;;;;;2104434;28;1840;-79
2021/10/28 09:00:20;;;;;;;;;;;;;;;;;;2105812;28;1760;-78
2021/10/28 09:24:29;;;;;;;;;;;;;;;;;;2079146;28;1557;-77
2021/10/28 09:25:37;;;;;;;;;;;;;;;;;;2089402;28;904;-77
2021/10/28 09:26:44;;;;;;;;;;;;;;;;;;2089156;28;1695;-78
2021/10/28 09:27:48;;;;;;;;;;;;;;;;;;2084272;28;1889;-78
2021/10/28 09:28:59;;;;;;;;;;;;;;;;;;2085408;28;1572;-77
2021/10/28 09:30:08;;;;;;;;;;;;;;;;;;2085202;28;1620;-78
2021/10/28 09:31:13;;;;;;;;;;;;;;;;;;2080195;28;1893;-78
2021/10/28 09:32:30;;;;;;;;;;;;;;;;;;2084009;28;1706;-77
2021/10/28 09:33:38;;;;;;;;;;;;;;;;;;2077831;28;1963;-78
2021/10/28 09:35:04;;;;;;;;;;;;;;;;;;2076472;28;1652;-78
2021/10/28 09:43:33;;;;;;;;;;;;;;;;;;2079719;28;2016;-78
2021/10/28 09:44:48;;;;;;;;;;;;;;;;;;2086554;28;1854;-78
2021/10/28 09:46:07;;;;;;;;;;;;;;;;;;2093292;28;1859;-78
2021/10/28 09:47:31;;;;;;;;;;;;;;;;;;2108334;28;1291;-78
2021/10/28 09:50:04;;;;;;;;;;;;;;;;;;2066915;28;1840;-78
2021/10/28 09:51:06;;;;;;;;;;;;;;;;;;2087876;28;1936;-78
2021/10/28 09:52:26;;;;;;;;;;;;;;;;;;2095813;28;1585;-77
2021/10/28 09:53:30;;;;;;;;;;;;;;;;;;2091469;28;1376;-78
2021/10/28 09:54:38;;;;;;;;;;;;;;;;;;2100219;28;1601;-78